sensor_id;sensor_type;location;lat;lon;timestamp;pressure;altitude;pressure_sealevel;temperature;humidity
20228;BME280;12195;55.790;37.572;2022-11-23T00:01:24;98754.07;;;3.69;82.03
20228;BME280;12195;55.790;37.572;2022-11-23T00:03:55;98766.02;;;3.73;82.10
20228;BME280;12195;55.790;37.572;2022-11-23T00:06:26;98767.69;;;3.74;82.10
20228;BME280;12195;55.790;37.572;2022-11-23T00:08:57;98761.73;;;3.72;82.03
20228;BME280;12195;55.790;37.572;2022-11-23T00:11:28;98763.41;;;3.73;82.01
20228;BME280;12195;55.790;37.572;2022-11-23T00:14:00;98769.52;;;3.72;82.04
20228;BME280;12195;55.790;37.572;2022-11-23T00:16:31;98768.60;;;3.73;82.07
20228;BME280;12195;55.790;37.572;2022-11-23T00:19:07;98763.41;;;3.73;82.02
20228;BME280;12195;55.790;37.572;2022-11-23T00:21:38;98775.42;;;3.75;82.03
20228;BME280;12195;55.790;37.572;2022-11-23T00:24:10;98773.67;;;3.76;82.03
20228;BME280;12195;55.790;37.572;2022-11-23T00:26:41;98769.31;;;3.76;81.97
20228;BME280;12195;55.790;37.572;2022-11-23T00:29:12;98769.25;;;3.78;82.09
20228;BME280;12195;55.790;37.572;2022-11-23T00:31:44;98768.42;;;3.77;82.06
20228;BME280;12195;55.790;37.572;2022-11-23T00:34:16;98759.78;;;3.77;82.02
20228;BME280;12195;55.790;37.572;2022-11-23T00:36:46;98762.38;;;3.77;82.02
20228;BME280;12195;55.790;37.572;2022-11-23T00:39:17;98764.97;;;3.77;81.98
20228;BME280;12195;55.790;37.572;2022-11-23T00:41:49;98766.66;;;3.78;81.95
20228;BME280;12195;55.790;37.572;2022-11-23T00:44:20;98756.20;;;3.79;81.98
20228;BME280;12195;55.790;37.572;2022-11-23T00:46:51;98761.34;;;3.81;81.98
20228;BME280;12195;55.790;37.572;2022-11-23T00:49:22;98751.81;;;3.81;82.02
20228;BME280;12195;55.790;37.572;2022-11-23T00:51:54;98767.39;;;3.81;81.99
20228;BME280;12195;55.790;37.572;2022-11-23T00:54:25;98768.20;;;3.82;81.96
20228;BME280;12195;55.790;37.572;2022-11-23T00:56:56;98767.39;;;3.81;81.97
20228;BME280;12195;55.790;37.572;2022-11-23T00:59:27;98757.83;;;3.82;82.02
20228;BME280;12195;55.790;37.572;2022-11-23T01:01:59;98764.70;;;3.83;82.04
20228;BME280;12195;55.790;37.572;2022-11-23T01:04:30;98765.61;;;3.82;82.02
20228;BME280;12195;55.790;37.572;2022-11-23T01:07:01;98763.88;;;3.82;82.03
20228;BME280;12195;55.790;37.572;2022-11-23T01:09:33;98764.70;;;3.83;82.07
20228;BME280;12195;55.790;37.572;2022-11-23T01:12:04;98764.79;;;3.81;82.08
20228;BME280;12195;55.790;37.572;2022-11-23T01:14:35;98767.45;;;3.80;82.09
20228;BME280;12195;55.790;37.572;2022-11-23T01:17:06;98763.14;;;3.79;82.13
20228;BME280;12195;55.790;37.572;2022-11-23T01:19:36;98759.78;;;3.77;82.14
20228;BME280;12195;55.790;37.572;2022-11-23T01:22:07;98756.33;;;3.76;82.12
20228;BME280;12195;55.790;37.572;2022-11-23T01:24:38;98754.59;;;3.77;82.13
20228;BME280;12195;55.790;37.572;2022-11-23T01:27:10;98753.73;;;3.76;82.12
20228;BME280;12195;55.790;37.572;2022-11-23T01:29:41;98747.72;;;3.76;82.13
20228;BME280;12195;55.790;37.572;2022-11-23T01:32:12;98745.95;;;3.76;82.16
20228;BME280;12195;55.790;37.572;2022-11-23T01:34:42;98748.55;;;3.76;82.14
20228;BME280;12195;55.790;37.572;2022-11-23T01:37:13;98752.05;;;3.75;82.17
20228;BME280;12195;55.790;37.572;2022-11-23T01:39:46;98751.20;;;3.75;82.16
20228;BME280;12195;55.790;37.572;2022-11-23T01:42:17;98756.33;;;3.76;82.15
20228;BME280;12195;55.790;37.572;2022-11-23T01:44:49;98750.31;;;3.76;82.14
20228;BME280;12195;55.790;37.572;2022-11-23T01:47:20;98750.31;;;3.76;82.12
20228;BME280;12195;55.790;37.572;2022-11-23T01:49:51;98756.39;;;3.75;82.16
20228;BME280;12195;55.790;37.572;2022-11-23T01:52:23;98750.31;;;3.76;82.19
20228;BME280;12195;55.790;37.572;2022-11-23T01:54:56;98751.20;;;3.75;82.17
20228;BME280;12195;55.790;37.572;2022-11-23T01:57:40;98757.25;;;3.75;82.16
20228;BME280;12195;55.790;37.572;2022-11-23T02:00:05;98758.10;;;3.76;82.13
20228;BME280;12195;55.790;37.572;2022-11-23T02:02:50;98760.70;;;3.76;82.09
20228;BME280;12195;55.790;37.572;2022-11-23T02:05:20;98758.86;;;3.78;82.10
20228;BME280;12195;55.790;37.572;2022-11-23T02:07:52;98763.14;;;3.79;82.11
20228;BME280;12195;55.790;37.572;2022-11-23T02:10:23;98769.19;;;3.79;82.08
20228;BME280;12195;55.790;37.572;2022-11-23T02:12:54;98772.64;;;3.80;82.10
20228;BME280;12195;55.790;37.572;2022-11-23T02:15:27;98770.86;;;3.80;82.10
20228;BME280;12195;55.790;37.572;2022-11-23T02:17:58;98769.89;;;3.83;82.08
20228;BME280;12195;55.790;37.572;2022-11-23T02:20:29;98769.77;;;3.86;82.10
20228;BME280;12195;55.790;37.572;2022-11-23T02:28:08;98770.62;;;3.86;82.16
20228;BME280;12195;55.790;37.572;2022-11-23T02:30:40;98768.84;;;3.87;82.14
20228;BME280;12195;55.790;37.572;2022-11-23T02:33:30;98773.22;;;3.86;82.10
20228;BME280;12195;55.790;37.572;2022-11-23T02:36:01;98767.96;;;3.88;82.14
20228;BME280;12195;55.790;37.572;2022-11-23T02:38:32;98762.84;;;3.86;82.16
20228;BME280;12195;55.790;37.572;2022-11-23T02:41:04;98769.77;;;3.86;82.16
20228;BME280;12195;55.790;37.572;2022-11-23T02:43:35;98768.09;;;3.85;82.19
20228;BME280;12195;55.790;37.572;2022-11-23T02:46:06;98774.10;;;3.85;82.23
20228;BME280;12195;55.790;37.572;2022-11-23T02:48:37;98763.02;;;3.82;82.21
20228;BME280;12195;55.790;37.572;2022-11-23T02:51:08;98757.89;;;3.80;82.17
20228;BME280;12195;55.790;37.572;2022-11-23T02:53:39;98763.08;;;3.80;82.19
20228;BME280;12195;55.790;37.572;2022-11-23T02:56:11;98759.66;;;3.80;82.16
20228;BME280;12195;55.790;37.572;2022-11-23T02:58:42;98760.55;;;3.79;82.20
20228;BME280;12195;55.790;37.572;2022-11-23T03:01:13;98757.95;;;3.79;82.20
20228;BME280;12195;55.790;37.572;2022-11-23T03:03:46;98765.03;;;3.75;82.19
20228;BME280;12195;55.790;37.572;2022-11-23T03:06:17;98759.91;;;3.74;82.21
20228;BME280;12195;55.790;37.572;2022-11-23T03:08:49;98766.92;;;3.72;82.23
20228;BME280;12195;55.790;37.572;2022-11-23T03:11:20;98764.39;;;3.70;82.22
20228;BME280;12195;55.790;37.572;2022-11-23T03:13:51;98776.58;;;3.68;82.27
20228;BME280;12195;55.790;37.572;2022-11-23T03:16:23;98769.77;;;3.66;82.21
20228;BME280;12195;55.790;37.572;2022-11-23T03:18:54;98766.34;;;3.65;82.20
20228;BME280;12195;55.790;37.572;2022-11-23T03:21:26;98769.82;;;3.64;82.16
20228;BME280;12195;55.790;37.572;2022-11-23T03:23:57;98776.78;;;3.64;82.19
20228;BME280;12195;55.790;37.572;2022-11-23T03:26:28;98775.98;;;3.62;82.19
20228;BME280;12195;55.790;37.572;2022-11-23T03:29:00;98782.03;;;3.62;82.25
20228;BME280;12195;55.790;37.572;2022-11-23T03:31:31;98789.87;;;3.61;82.22
20228;BME280;12195;55.790;37.572;2022-11-23T03:34:02;98786.52;;;3.59;82.27
20228;BME280;12195;55.790;37.572;2022-11-23T03:36:35;98781.45;;;3.56;82.20
20228;BME280;12195;55.790;37.572;2022-11-23T03:39:06;98770.27;;;3.54;82.15
20228;BME280;12195;55.790;37.572;2022-11-23T03:41:55;98775.41;;;3.55;82.20
20228;BME280;12195;55.790;37.572;2022-11-23T03:44:28;98774.58;;;3.55;82.19
20228;BME280;12195;55.790;37.572;2022-11-23T03:46:59;98769.45;;;3.53;82.16
20228;BME280;12195;55.790;37.572;2022-11-23T03:49:30;98770.33;;;3.52;82.14
20228;BME280;12195;55.790;37.572;2022-11-23T03:52:02;98775.46;;;3.54;82.11
20228;BME280;12195;55.790;37.572;2022-11-23T03:54:34;98776.38;;;3.53;82.14
20228;BME280;12195;55.790;37.572;2022-11-23T03:57:05;98775.67;;;3.49;82.12
20228;BME280;12195;55.790;37.572;2022-11-23T03:59:36;98771.25;;;3.51;82.13
20228;BME280;12195;55.790;37.572;2022-11-23T04:02:08;98772.16;;;3.50;82.10
20228;BME280;12195;55.790;37.572;2022-11-23T04:04:41;98774.81;;;3.49;82.09
20228;BME280;12195;55.790;37.572;2022-11-23T04:07:14;98769.62;;;3.49;82.09
20228;BME280;12195;55.790;37.572;2022-11-23T04:09:47;98775.67;;;3.49;82.13
20228;BME280;12195;55.790;37.572;2022-11-23T04:12:26;98779.23;;;3.47;82.07
20228;BME280;12195;55.790;37.572;2022-11-23T04:14:57;98779.23;;;3.47;82.12
20228;BME280;12195;55.790;37.572;2022-11-23T04:17:30;98776.64;;;3.47;82.07
20228;BME280;12195;55.790;37.572;2022-11-23T04:20:03;98780.06;;;3.47;82.07
20228;BME280;12195;55.790;37.572;2022-11-23T04:22:34;98783.52;;;3.48;82.05
20228;BME280;12195;55.790;37.572;2022-11-23T04:25:05;98778.44;;;3.45;82.03
20228;BME280;12195;55.790;37.572;2022-11-23T04:27:37;98777.59;;;3.44;82.02
20228;BME280;12195;55.790;37.572;2022-11-23T04:30:09;98787.14;;;3.44;81.94
20228;BME280;12195;55.790;37.572;2022-11-23T04:32:40;98776.64;;;3.47;82.00
20228;BME280;12195;55.790;37.572;2022-11-23T04:35:13;98787.14;;;3.44;81.94
20228;BME280;12195;55.790;37.572;2022-11-23T04:37:45;98793.23;;;3.43;81.89
20228;BME280;12195;55.790;37.572;2022-11-23T04:40:16;98793.23;;;3.43;81.89
20228;BME280;12195;55.790;37.572;2022-11-23T04:42:49;98788.94;;;3.42;81.85
20228;BME280;12195;55.790;37.572;2022-11-23T04:45:20;98793.30;;;3.41;81.85
20228;BME280;12195;55.790;37.572;2022-11-23T04:47:55;98791.41;;;3.45;81.88
20228;BME280;12195;55.790;37.572;2022-11-23T04:50:27;98787.84;;;3.47;81.87
20228;BME280;12195;55.790;37.572;2022-11-23T04:52:59;98788.81;;;3.45;81.82
20228;BME280;12195;55.790;37.572;2022-11-23T04:55:32;98783.52;;;3.48;81.85
20228;BME280;12195;55.790;37.572;2022-11-23T04:58:03;98786.88;;;3.50;81.85
20228;BME280;12195;55.790;37.572;2022-11-23T05:00:37;98781.68;;;3.50;81.83
20228;BME280;12195;55.790;37.572;2022-11-23T05:03:09;98794.54;;;3.53;81.89
20228;BME280;12195;55.790;37.572;2022-11-23T05:05:42;98789.47;;;3.50;81.88
20228;BME280;12195;55.790;37.572;2022-11-23T05:08:15;98796.43;;;3.49;81.87
20228;BME280;12195;55.790;37.572;2022-11-23T05:10:48;98798.17;;;3.49;81.88
20228;BME280;12195;55.790;37.572;2022-11-23T05:13:20;98802.50;;;3.48;81.91
20228;BME280;12195;55.790;37.572;2022-11-23T05:15:51;98798.97;;;3.51;81.94
20228;BME280;12195;55.790;37.572;2022-11-23T05:18:24;98795.45;;;3.52;81.92
20228;BME280;12195;55.790;37.572;2022-11-23T05:20:56;98799.73;;;3.53;81.92
20228;BME280;12195;55.790;37.572;2022-11-23T05:23:27;98798.88;;;3.52;81.96
20228;BME280;12195;55.790;37.572;2022-11-23T05:25:59;98806.59;;;3.54;82.06
20228;BME280;12195;55.790;37.572;2022-11-23T05:28:32;98799.67;;;3.54;82.16
20228;BME280;12195;55.790;37.572;2022-11-23T05:31:05;98805.83;;;3.52;82.10
20228;BME280;12195;55.790;37.572;2022-11-23T05:33:36;98801.47;;;3.52;82.24
20228;BME280;12195;55.790;37.572;2022-11-23T05:36:08;98800.64;;;3.52;82.26
20228;BME280;12195;55.790;37.572;2022-11-23T05:38:41;98799.78;;;3.51;82.17
20228;BME280;12195;55.790;37.572;2022-11-23T05:41:14;98810.16;;;3.51;82.21
20228;BME280;12195;55.790;37.572;2022-11-23T05:43:46;98811.02;;;3.52;82.13
20228;BME280;12195;55.790;37.572;2022-11-23T05:46:19;98814.27;;;3.57;82.19
20228;BME280;12195;55.790;37.572;2022-11-23T05:48:50;98814.15;;;3.60;82.20
20228;BME280;12195;55.790;37.572;2022-11-23T05:51:22;98819.34;;;3.60;82.14
20228;BME280;12195;55.790;37.572;2022-11-23T05:53:54;98814.85;;;3.63;82.19
20228;BME280;12195;55.790;37.572;2022-11-23T05:56:34;98815.66;;;3.65;82.25
20228;BME280;12195;55.790;37.572;2022-11-23T05:59:12;98812.14;;;3.66;82.28
20228;BME280;12195;55.790;37.572;2022-11-23T06:01:45;98822.47;;;3.68;82.28
20228;BME280;12195;55.790;37.572;2022-11-23T06:04:18;98824.14;;;3.69;82.27
20228;BME280;12195;55.790;37.572;2022-11-23T06:06:49;98823.34;;;3.67;82.25
20228;BME280;12195;55.790;37.572;2022-11-23T06:09:22;98819.81;;;3.69;82.29
20228;BME280;12195;55.790;37.572;2022-11-23T06:11:53;98807.59;;;3.71;82.29
20228;BME280;12195;55.790;37.572;2022-11-23T06:14:25;98810.19;;;3.71;82.31
20228;BME280;12195;55.790;37.572;2022-11-23T06:16:58;98807.59;;;3.71;82.28
20228;BME280;12195;55.790;37.572;2022-11-23T06:19:31;98819.59;;;3.74;82.26
20228;BME280;12195;55.790;37.572;2022-11-23T06:22:02;98816.03;;;3.76;82.26
20228;BME280;12195;55.790;37.572;2022-11-23T06:24:35;98820.39;;;3.76;82.26
20228;BME280;12195;55.790;37.572;2022-11-23T06:27:26;98821.16;;;3.78;82.32
20228;BME280;12195;55.790;37.572;2022-11-23T06:29:58;98815.05;;;3.79;82.36
20228;BME280;12195;55.790;37.572;2022-11-23T06:32:30;98818.56;;;3.78;82.32
20228;BME280;12195;55.790;37.572;2022-11-23T06:35:01;98822.84;;;3.79;82.26
20228;BME280;12195;55.790;37.572;2022-11-23T06:37:35;98817.53;;;3.82;82.24
20228;BME280;12195;55.790;37.572;2022-11-23T06:40:07;98818.17;;;3.87;82.25
20228;BME280;12195;55.790;37.572;2022-11-23T06:42:38;98813.78;;;3.89;82.21
20228;BME280;12195;55.790;37.572;2022-11-23T06:45:11;98815.34;;;3.93;82.21
20228;BME280;12195;55.790;37.572;2022-11-23T06:47:43;98805.72;;;3.95;82.23
20228;BME280;12195;55.790;37.572;2022-11-23T06:50:14;98815.22;;;3.96;82.19
20228;BME280;12195;55.790;37.572;2022-11-23T06:52:52;98822.03;;;3.98;82.15
20228;BME280;12195;55.790;37.572;2022-11-23T06:55:23;98820.08;;;4.03;82.19
20228;BME280;12195;55.790;37.572;2022-11-23T06:57:55;98817.53;;;4.02;82.12
20228;BME280;12195;55.790;37.572;2022-11-23T07:00:27;98820.84;;;4.05;82.15
20228;BME280;12195;55.790;37.572;2022-11-23T07:02:59;98815.73;;;4.04;82.08
20228;BME280;12195;55.790;37.572;2022-11-23T07:05:32;98817.26;;;4.08;82.10
20228;BME280;12195;55.790;37.572;2022-11-23T07:08:04;98824.28;;;4.06;82.06
20228;BME280;12195;55.790;37.572;2022-11-23T07:10:36;98828.50;;;4.08;81.96
20228;BME280;12195;55.790;37.572;2022-11-23T07:13:09;98830.06;;;4.12;81.94
20228;BME280;12195;55.790;37.572;2022-11-23T07:15:41;98830.34;;;4.06;81.88
20228;BME280;12195;55.790;37.572;2022-11-23T07:18:12;98831.16;;;4.07;81.88
20228;BME280;12195;55.790;37.572;2022-11-23T07:20:45;98839.59;;;4.12;81.86
20228;BME280;12195;55.790;37.572;2022-11-23T07:23:16;98842.13;;;4.13;81.77
20228;BME280;12195;55.790;37.572;2022-11-23T07:25:47;98839.41;;;4.16;81.75
20228;BME280;12195;55.790;37.572;2022-11-23T07:28:18;98837.80;;;4.14;81.71
20228;BME280;12195;55.790;37.572;2022-11-23T07:30:50;98841.24;;;4.14;81.68
20228;BME280;12195;55.790;37.572;2022-11-23T07:33:21;98842.92;;;4.15;81.65
20228;BME280;12195;55.790;37.572;2022-11-23T07:35:52;98850.50;;;4.20;81.59
20228;BME280;12195;55.790;37.572;2022-11-23T07:38:24;98843.63;;;4.19;81.51
20228;BME280;12195;55.790;37.572;2022-11-23T07:40:55;98846.80;;;4.25;81.32
20228;BME280;12195;55.790;37.572;2022-11-23T07:43:47;98853.77;;;4.25;81.30
20228;BME280;12195;55.790;37.572;2022-11-23T07:46:20;98852.57;;;4.32;81.22
20228;BME280;12195;55.790;37.572;2022-11-23T07:48:51;98853.37;;;4.34;81.09
20228;BME280;12195;55.790;37.572;2022-11-23T07:51:23;98851.47;;;4.37;81.01
20228;BME280;12195;55.790;37.572;2022-11-23T07:53:54;98848.11;;;4.35;80.90
20228;BME280;12195;55.790;37.572;2022-11-23T07:56:25;98853.30;;;4.35;80.71
20228;BME280;12195;55.790;37.572;2022-11-23T07:58:56;98853.15;;;4.38;80.71
20228;BME280;12195;55.790;37.572;2022-11-23T08:01:28;98844.53;;;4.38;80.58
20228;BME280;12195;55.790;37.572;2022-11-23T08:04:00;98847.12;;;4.38;80.56
20228;BME280;12195;55.790;37.572;2022-11-23T08:06:32;98838.35;;;4.40;80.39
20228;BME280;12195;55.790;37.572;2022-11-23T08:09:03;98839.05;;;4.44;80.15
20228;BME280;12195;55.790;37.572;2022-11-23T08:11:34;98839.49;;;4.53;79.73
20228;BME280;12195;55.790;37.572;2022-11-23T08:14:05;98837.02;;;4.50;79.62
20228;BME280;12195;55.790;37.572;2022-11-23T08:16:36;98838.06;;;4.46;79.56
20228;BME280;12195;55.790;37.572;2022-11-23T08:19:07;98840.66;;;4.46;79.62
20228;BME280;12195;55.790;37.572;2022-11-23T08:21:38;98833.66;;;4.48;79.36
20228;BME280;12195;55.790;37.572;2022-11-23T08:24:09;98838.73;;;4.51;78.96
20228;BME280;12195;55.790;37.572;2022-11-23T08:26:40;98837.94;;;4.49;78.89
20228;BME280;12195;55.790;37.572;2022-11-23T08:29:11;98833.72;;;4.47;78.57
20228;BME280;12195;55.790;37.572;2022-11-23T08:31:42;98844.06;;;4.48;78.60
20228;BME280;12195;55.790;37.572;2022-11-23T08:34:13;98839.43;;;4.55;78.08
20228;BME280;12195;55.790;37.572;2022-11-23T08:36:44;98841.67;;;4.62;78.06
20228;BME280;12195;55.790;37.572;2022-11-23T08:39:16;98838.88;;;4.67;78.23
20228;BME280;12195;55.790;37.572;2022-11-23T08:41:48;98843.66;;;4.76;78.11
20228;BME280;12195;55.790;37.572;2022-11-23T08:44:19;98855.48;;;4.83;77.92
20228;BME280;12195;55.790;37.572;2022-11-23T08:46:50;98852.59;;;4.89;78.09
20228;BME280;12195;55.790;37.572;2022-11-23T08:49:21;98853.88;;;4.99;78.02
20228;BME280;12195;55.790;37.572;2022-11-23T08:51:52;98856.11;;;5.06;78.16
20228;BME280;12195;55.790;37.572;2022-11-23T08:54:23;98848.86;;;5.13;78.27
20228;BME280;12195;55.790;37.572;2022-11-23T08:56:54;98859.00;;;5.19;78.38
20228;BME280;12195;55.790;37.572;2022-11-23T08:59:25;98861.17;;;5.28;78.07
20228;BME280;12195;55.790;37.572;2022-11-23T09:01:56;98853.84;;;5.36;77.82
20228;BME280;12195;55.790;37.572;2022-11-23T09:04:29;98858.61;;;5.45;77.44
20228;BME280;12195;55.790;37.572;2022-11-23T09:07:01;98847.27;;;5.46;77.52
20228;BME280;12195;55.790;37.572;2022-11-23T09:09:33;98854.16;;;5.47;77.55
20228;BME280;12195;55.790;37.572;2022-11-23T09:12:04;98853.09;;;5.51;77.61
20228;BME280;12195;55.790;37.572;2022-11-23T09:14:35;98854.80;;;5.52;77.76
20228;BME280;12195;55.790;37.572;2022-11-23T09:17:06;98855.48;;;5.55;77.82
20228;BME280;12195;55.790;37.572;2022-11-23T09:19:38;98855.17;;;5.61;77.77
20228;BME280;12195;55.790;37.572;2022-11-23T09:22:08;98858.25;;;5.69;77.47
20228;BME280;12195;55.790;37.572;2022-11-23T09:24:39;98863.32;;;5.72;77.16
20228;BME280;12195;55.790;37.572;2022-11-23T09:27:11;98857.91;;;5.77;77.10
20228;BME280;12195;55.790;37.572;2022-11-23T09:29:42;98855.13;;;5.80;77.09
20228;BME280;12195;55.790;37.572;2022-11-23T09:32:13;98852.27;;;5.86;76.95
20228;BME280;12195;55.790;37.572;2022-11-23T09:34:44;98854.66;;;5.91;76.70
20228;BME280;12195;55.790;37.572;2022-11-23T09:37:15;98848.27;;;5.96;76.42
20228;BME280;12195;55.790;37.572;2022-11-23T09:39:47;98849.98;;;5.97;76.33
20228;BME280;12195;55.790;37.572;2022-11-23T09:53:34;98856.30;;;5.74;75.32
20228;BME280;12195;55.790;37.572;2022-11-23T09:56:01;98860.17;;;5.66;75.32
20228;BME280;12195;55.790;37.572;2022-11-23T09:58:35;98859.70;;;5.58;75.00
20228;BME280;12195;55.790;37.572;2022-11-23T10:01:11;98852.48;;;5.46;74.80
20228;BME280;12195;55.790;37.572;2022-11-23T10:03:40;98858.81;;;5.40;74.81
20228;BME280;12195;55.790;37.572;2022-11-23T10:06:19;98860.17;;;5.30;74.84
20228;BME280;12195;55.790;37.572;2022-11-23T10:11:30;98858.08;;;5.20;74.68
20228;BME280;12195;55.790;37.572;2022-11-23T10:14:06;98855.48;;;5.20;74.44
20228;BME280;12195;55.790;37.572;2022-11-23T10:16:55;98856.67;;;5.13;74.27
20228;BME280;12195;55.790;37.572;2022-11-23T10:19:25;98858.71;;;5.06;74.17
20228;BME280;12195;55.790;37.572;2022-11-23T10:24:26;98856.61;;;4.96;74.23
20228;BME280;12195;55.790;37.572;2022-11-23T10:26:57;98859.27;;;4.94;74.11
20228;BME280;12195;55.790;37.572;2022-11-23T10:29:30;98862.92;;;4.90;74.14
20228;BME280;12195;55.790;37.572;2022-11-23T10:32:04;98866.52;;;4.88;74.25
20228;BME280;12195;55.790;37.572;2022-11-23T10:37:13;98864.97;;;4.84;73.98
20228;BME280;12195;55.790;37.572;2022-11-23T10:39:45;98860.69;;;4.83;73.97
20228;BME280;12195;55.790;37.572;2022-11-23T10:42:18;98858.84;;;4.85;74.14
20228;BME280;12195;55.790;37.572;2022-11-23T10:44:49;98857.30;;;4.81;74.09
20228;BME280;12195;55.790;37.572;2022-11-23T10:47:34;98864.04;;;4.85;73.71
20228;BME280;12195;55.790;37.572;2022-11-23T10:50:02;98858.28;;;4.78;73.83
20228;BME280;12195;55.790;37.572;2022-11-23T10:52:34;98871.41;;;4.75;73.79
20228;BME280;12195;55.790;37.572;2022-11-23T10:55:04;98870.71;;;4.72;73.87
20228;BME280;12195;55.790;37.572;2022-11-23T10:57:42;98866.69;;;4.65;73.87
20228;BME280;12195;55.790;37.572;2022-11-23T11:00:15;98872.87;;;4.62;73.89
20228;BME280;12195;55.790;37.572;2022-11-23T11:02:47;98873.73;;;4.63;73.90
20228;BME280;12195;55.790;37.572;2022-11-23T11:07:54;98869.51;;;4.60;73.68
20228;BME280;12195;55.790;37.572;2022-11-23T11:10:33;98870.62;;;4.55;73.60
20228;BME280;12195;55.790;37.572;2022-11-23T11:13:21;98880.16;;;4.54;73.67
20228;BME280;12195;55.790;37.572;2022-11-23T11:16:03;98875.24;;;4.48;73.62
20228;BME280;12195;55.790;37.572;2022-11-23T11:18:35;98876.47;;;4.40;73.78
20228;BME280;12195;55.790;37.572;2022-11-23T11:21:16;98884.33;;;4.38;73.86
20228;BME280;12195;55.790;37.572;2022-11-23T11:23:39;98885.31;;;4.36;73.98
20228;BME280;12195;55.790;37.572;2022-11-23T11:26:26;98881.95;;;4.34;74.11
20228;BME280;12195;55.790;37.572;2022-11-23T11:28:53;98897.47;;;4.35;74.14
20228;BME280;12195;55.790;37.572;2022-11-23T11:34:13;98890.97;;;4.25;74.23
20228;BME280;12195;55.790;37.572;2022-11-23T11:36:44;98892.00;;;4.21;74.57
20228;BME280;12195;55.790;37.572;2022-11-23T11:39:17;98899.09;;;4.18;74.67
20228;BME280;12195;55.790;37.572;2022-11-23T11:41:45;98902.45;;;4.20;74.72
20228;BME280;12195;55.790;37.572;2022-11-23T11:44:20;98901.75;;;4.16;74.81
20228;BME280;12195;55.790;37.572;2022-11-23T11:46:55;98906.23;;;4.13;74.76
20228;BME280;12195;55.790;37.572;2022-11-23T11:49:30;98908.31;;;4.05;74.83
20228;BME280;12195;55.790;37.572;2022-11-23T11:52:10;98912.59;;;4.06;74.83
20228;BME280;12195;55.790;37.572;2022-11-23T11:54:34;98911.87;;;4.02;74.91
20228;BME280;12195;55.790;37.572;2022-11-23T11:57:09;98918.92;;;3.99;75.03
20228;BME280;12195;55.790;37.572;2022-11-23T11:59:39;98919.84;;;3.98;75.01
20228;BME280;12195;55.790;37.572;2022-11-23T12:02:18;98920.81;;;3.95;75.07
20228;BME280;12195;55.790;37.572;2022-11-23T12:07:32;98925.74;;;4.01;75.19
20228;BME280;12195;55.790;37.572;2022-11-23T12:10:11;98933.63;;;4.00;75.15
20228;BME280;12195;55.790;37.572;2022-11-23T12:12:41;98934.39;;;4.02;75.23
20228;BME280;12195;55.790;37.572;2022-11-23T12:15:18;98937.05;;;4.00;75.25
20228;BME280;12195;55.790;37.572;2022-11-23T12:17:56;98944.02;;;4.00;75.18
20228;BME280;12195;55.790;37.572;2022-11-23T12:20:39;98946.72;;;3.97;75.26
20228;BME280;12195;55.790;37.572;2022-11-23T12:23:08;98945.05;;;3.96;75.36
20228;BME280;12195;55.790;37.572;2022-11-23T12:25:37;98951.06;;;3.96;75.45
20228;BME280;12195;55.790;37.572;2022-11-23T12:33:28;98968.41;;;3.96;75.46
20228;BME280;12195;55.790;37.572;2022-11-23T12:38:53;98973.61;;;3.96;75.60
20228;BME280;12195;55.790;37.572;2022-11-23T12:54:46;98989.19;;;3.96;75.47
20228;BME280;12195;55.790;37.572;2022-11-23T13:02:44;99001.73;;;3.85;75.38
20228;BME280;12195;55.790;37.572;2022-11-23T13:05:18;99001.73;;;3.85;75.33
20228;BME280;12195;55.790;37.572;2022-11-23T13:10:42;99003.78;;;3.77;75.31
20228;BME280;12195;55.790;37.572;2022-11-23T13:15:51;99002.27;;;3.71;75.46
20228;BME280;12195;55.790;37.572;2022-11-23T13:18:40;99019.57;;;3.71;75.72
20228;BME280;12195;55.790;37.572;2022-11-23T13:23:48;99022.97;;;3.73;75.78
20228;BME280;12195;55.790;37.572;2022-11-23T13:26:22;99018.64;;;3.73;75.65
20228;BME280;12195;55.790;37.572;2022-11-23T13:28:55;99013.66;;;3.67;75.73
20228;BME280;12195;55.790;37.572;2022-11-23T13:31:28;99015.48;;;3.65;75.84
20228;BME280;12195;55.790;37.572;2022-11-23T13:34:01;99026.59;;;3.69;75.89
20228;BME280;12195;55.790;37.572;2022-11-23T13:36:33;99018.80;;;3.69;75.86
20228;BME280;12195;55.790;37.572;2022-11-23T13:42:01;99025.13;;;3.62;75.83
20228;BME280;12195;55.790;37.572;2022-11-23T13:44:30;99026.94;;;3.60;75.86
20228;BME280;12195;55.790;37.572;2022-11-23T13:49:51;99024.51;;;3.55;75.90
20228;BME280;12195;55.790;37.572;2022-11-23T13:52:24;99028.06;;;3.53;75.88
20228;BME280;12195;55.790;37.572;2022-11-23T13:55:08;99029.99;;;3.48;75.93
20228;BME280;12195;55.790;37.572;2022-11-23T13:57:42;99040.48;;;3.45;75.91
20228;BME280;12195;55.790;37.572;2022-11-23T14:08:22;99047.22;;;3.26;75.72
20228;BME280;12195;55.790;37.572;2022-11-23T14:10:55;99060.32;;;3.23;75.90
20228;BME280;12195;55.790;37.572;2022-11-23T14:13:31;99063.02;;;3.20;75.93
20228;BME280;12195;55.790;37.572;2022-11-23T14:16:02;99061.43;;;3.16;75.90
20228;BME280;12195;55.790;37.572;2022-11-23T14:18:41;99059.80;;;3.13;76.02
20228;BME280;12195;55.790;37.572;2022-11-23T14:21:13;99059.84;;;3.12;76.13
20228;BME280;12195;55.790;37.572;2022-11-23T14:26:23;99066.04;;;3.08;76.33
20228;BME280;12195;55.790;37.572;2022-11-23T14:28:58;99069.59;;;3.05;76.41
20228;BME280;12195;55.790;37.572;2022-11-23T14:36:54;99074.88;;;3.02;76.69
20228;BME280;12195;55.790;37.572;2022-11-23T14:42:12;99078.37;;;3.01;76.82
20228;BME280;12195;55.790;37.572;2022-11-23T14:44:43;99077.70;;;2.96;76.81
20228;BME280;12195;55.790;37.572;2022-11-23T14:47:14;99076.78;;;2.97;76.83
20228;BME280;12195;55.790;37.572;2022-11-23T14:49:47;99080.16;;;2.99;76.86
20228;BME280;12195;55.790;37.572;2022-11-23T14:52:22;99088.02;;;2.98;76.65
20228;BME280;12195;55.790;37.572;2022-11-23T14:54:55;99085.61;;;2.92;76.68
20228;BME280;12195;55.790;37.572;2022-11-23T14:57:28;99086.66;;;2.86;76.57
20228;BME280;12195;55.790;37.572;2022-11-23T14:59:59;99085.88;;;2.84;76.52